sensor_id;sensor_type;location;lat;lon;timestamp;P1;durP1;ratioP1;P2;durP2;ratioP2
27632;SDS011;15046;50.930;13.334;2022-08-14T00:01:08;15.32;;;13.45;;
27632;SDS011;15046;50.930;13.334;2022-08-14T00:03:34;14.80;;;12.70;;
27632;SDS011;15046;50.930;13.334;2022-08-14T00:06:01;16.67;;;14.48;;
27632;SDS011;15046;50.930;13.334;2022-08-14T00:08:27;18.13;;;13.57;;
27632;SDS011;15046;50.930;13.334;2022-08-14T00:10:54;15.75;;;13.07;;
27632;SDS011;15046;50.930;13.334;2022-08-14T00:13:21;13.80;;;12.38;;
27632;SDS011;15046;50.930;13.334;2022-08-14T00:15:49;15.10;;;13.02;;
27632;SDS011;15046;50.930;13.334;2022-08-14T00:18:20;24.70;;;13.43;;
27632;SDS011;15046;50.930;13.334;2022-08-14T00:20:47;15.90;;;13.93;;
27632;SDS011;15046;50.930;13.334;2022-08-14T00:23:14;15.02;;;13.35;;
27632;SDS011;15046;50.930;13.334;2022-08-14T00:25:42;18.52;;;14.15;;
27632;SDS011;15046;50.930;13.334;2022-08-14T00:28:13;17.95;;;15.43;;
27632;SDS011;15046;50.930;13.334;2022-08-14T00:30:39;15.85;;;14.13;;
27632;SDS011;15046;50.930;13.334;2022-08-14T00:33:05;16.00;;;13.80;;
27632;SDS011;15046;50.930;13.334;2022-08-14T00:35:32;17.45;;;14.48;;
27632;SDS011;15046;50.930;13.334;2022-08-14T00:37:57;17.27;;;15.00;;
27632;SDS011;15046;50.930;13.334;2022-08-14T00:40:24;16.95;;;15.15;;
27632;SDS011;15046;50.930;13.334;2022-08-14T00:42:50;18.27;;;15.80;;
27632;SDS011;15046;50.930;13.334;2022-08-14T00:45:16;19.95;;;16.45;;
27632;SDS011;15046;50.930;13.334;2022-08-14T00:47:44;20.33;;;17.88;;
27632;SDS011;15046;50.930;13.334;2022-08-14T00:50:13;18.95;;;16.75;;
27632;SDS011;15046;50.930;13.334;2022-08-14T00:52:41;19.00;;;15.60;;
27632;SDS011;15046;50.930;13.334;2022-08-14T00:55:09;24.20;;;16.60;;
27632;SDS011;15046;50.930;13.334;2022-08-14T00:57:36;18.67;;;16.60;;
27632;SDS011;15046;50.930;13.334;2022-08-14T01:00:07;18.40;;;14.85;;
27632;SDS011;15046;50.930;13.334;2022-08-14T01:02:38;17.95;;;15.68;;
27632;SDS011;15046;50.930;13.334;2022-08-14T01:05:07;18.83;;;15.83;;
27632;SDS011;15046;50.930;13.334;2022-08-14T01:10:23;19.70;;;16.27;;
27632;SDS011;15046;50.930;13.334;2022-08-14T01:13:10;18.17;;;15.20;;
27632;SDS011;15046;50.930;13.334;2022-08-14T01:15:40;19.65;;;14.60;;
27632;SDS011;15046;50.930;13.334;2022-08-14T01:20:56;18.63;;;16.13;;
27632;SDS011;15046;50.930;13.334;2022-08-14T01:23:48;19.67;;;16.20;;
27632;SDS011;15046;50.930;13.334;2022-08-14T01:26:18;24.42;;;17.70;;
27632;SDS011;15046;50.930;13.334;2022-08-14T01:28:47;20.95;;;16.23;;
27632;SDS011;15046;50.930;13.334;2022-08-14T01:31:20;20.42;;;16.58;;
27632;SDS011;15046;50.930;13.334;2022-08-14T01:33:49;17.90;;;15.82;;
27632;SDS011;15046;50.930;13.334;2022-08-14T01:36:17;19.00;;;16.95;;
27632;SDS011;15046;50.930;13.334;2022-08-14T01:38:45;24.85;;;18.55;;
27632;SDS011;15046;50.930;13.334;2022-08-14T01:41:14;23.10;;;18.80;;
27632;SDS011;15046;50.930;13.334;2022-08-14T01:43:48;22.20;;;18.65;;
27632;SDS011;15046;50.930;13.334;2022-08-14T01:46:19;23.35;;;18.92;;
27632;SDS011;15046;50.930;13.334;2022-08-14T01:48:47;26.55;;;19.02;;
27632;SDS011;15046;50.930;13.334;2022-08-14T01:51:16;24.52;;;19.17;;
27632;SDS011;15046;50.930;13.334;2022-08-14T01:53:51;21.75;;;19.13;;
27632;SDS011;15046;50.930;13.334;2022-08-14T01:56:49;20.67;;;17.20;;
27632;SDS011;15046;50.930;13.334;2022-08-14T01:59:31;23.10;;;18.05;;
27632;SDS011;15046;50.930;13.334;2022-08-14T02:01:59;23.67;;;17.73;;
27632;SDS011;15046;50.930;13.334;2022-08-14T02:04:33;24.30;;;18.05;;
27632;SDS011;15046;50.930;13.334;2022-08-14T02:07:00;23.30;;;18.45;;
27632;SDS011;15046;50.930;13.334;2022-08-14T02:09:27;24.45;;;20.77;;
27632;SDS011;15046;50.930;13.334;2022-08-14T02:11:59;21.50;;;17.48;;
27632;SDS011;15046;50.930;13.334;2022-08-14T02:14:26;22.15;;;18.02;;
27632;SDS011;15046;50.930;13.334;2022-08-14T02:16:52;22.02;;;18.10;;
27632;SDS011;15046;50.930;13.334;2022-08-14T02:19:19;22.02;;;17.08;;
27632;SDS011;15046;50.930;13.334;2022-08-14T02:21:48;21.50;;;17.75;;
27632;SDS011;15046;50.930;13.334;2022-08-14T02:24:16;18.52;;;16.52;;
27632;SDS011;15046;50.930;13.334;2022-08-14T02:26:45;24.23;;;17.75;;
27632;SDS011;15046;50.930;13.334;2022-08-14T02:29:16;22.23;;;17.92;;
27632;SDS011;15046;50.930;13.334;2022-08-14T02:31:46;23.50;;;18.02;;
27632;SDS011;15046;50.930;13.334;2022-08-14T02:34:18;21.55;;;17.08;;
27632;SDS011;15046;50.930;13.334;2022-08-14T02:36:48;20.13;;;16.30;;
27632;SDS011;15046;50.930;13.334;2022-08-14T02:39:16;21.27;;;17.80;;
27632;SDS011;15046;50.930;13.334;2022-08-14T02:41:43;24.38;;;19.13;;
27632;SDS011;15046;50.930;13.334;2022-08-14T02:44:09;20.92;;;17.58;;
27632;SDS011;15046;50.930;13.334;2022-08-14T02:46:39;21.98;;;17.83;;
27632;SDS011;15046;50.930;13.334;2022-08-14T02:49:09;21.77;;;18.63;;
27632;SDS011;15046;50.930;13.334;2022-08-14T02:51:35;24.63;;;18.58;;
27632;SDS011;15046;50.930;13.334;2022-08-14T02:54:02;20.58;;;18.08;;
27632;SDS011;15046;50.930;13.334;2022-08-14T02:56:31;21.33;;;17.80;;
27632;SDS011;15046;50.930;13.334;2022-08-14T02:58:57;22.52;;;19.73;;
27632;SDS011;15046;50.930;13.334;2022-08-14T03:01:26;23.13;;;18.63;;
27632;SDS011;15046;50.930;13.334;2022-08-14T03:03:53;23.25;;;18.70;;
27632;SDS011;15046;50.930;13.334;2022-08-14T03:06:22;22.58;;;18.38;;
27632;SDS011;15046;50.930;13.334;2022-08-14T03:08:52;24.70;;;19.65;;
27632;SDS011;15046;50.930;13.334;2022-08-14T03:11:19;23.63;;;19.27;;
27632;SDS011;15046;50.930;13.334;2022-08-14T03:13:47;22.45;;;19.65;;
27632;SDS011;15046;50.930;13.334;2022-08-14T03:16:16;27.27;;;18.58;;
27632;SDS011;15046;50.930;13.334;2022-08-14T03:18:49;20.08;;;17.58;;
27632;SDS011;15046;50.930;13.334;2022-08-14T03:21:22;23.38;;;18.75;;
27632;SDS011;15046;50.930;13.334;2022-08-14T03:23:50;24.08;;;20.38;;
27632;SDS011;15046;50.930;13.334;2022-08-14T03:26:39;24.50;;;20.52;;
27632;SDS011;15046;50.930;13.334;2022-08-14T03:29:07;20.95;;;18.05;;
27632;SDS011;15046;50.930;13.334;2022-08-14T03:31:34;30.40;;;20.15;;
27632;SDS011;15046;50.930;13.334;2022-08-14T03:34:02;27.73;;;21.90;;
27632;SDS011;15046;50.930;13.334;2022-08-14T03:36:28;24.50;;;19.95;;
27632;SDS011;15046;50.930;13.334;2022-08-14T03:38:56;23.00;;;19.40;;
27632;SDS011;15046;50.930;13.334;2022-08-14T03:41:24;25.98;;;21.60;;
27632;SDS011;15046;50.930;13.334;2022-08-14T03:43:52;29.90;;;22.92;;
27632;SDS011;15046;50.930;13.334;2022-08-14T03:46:22;24.63;;;20.30;;
27632;SDS011;15046;50.930;13.334;2022-08-14T03:48:53;26.80;;;21.27;;
27632;SDS011;15046;50.930;13.334;2022-08-14T03:51:19;26.33;;;20.15;;
27632;SDS011;15046;50.930;13.334;2022-08-14T03:53:46;27.88;;;21.63;;
27632;SDS011;15046;50.930;13.334;2022-08-14T03:56:14;31.05;;;23.40;;
27632;SDS011;15046;50.930;13.334;2022-08-14T03:58:42;27.70;;;21.60;;
27632;SDS011;15046;50.930;13.334;2022-08-14T04:01:12;27.23;;;22.38;;
27632;SDS011;15046;50.930;13.334;2022-08-14T04:03:43;30.52;;;23.70;;
27632;SDS011;15046;50.930;13.334;2022-08-14T04:06:10;29.42;;;22.30;;
27632;SDS011;15046;50.930;13.334;2022-08-14T04:08:37;25.90;;;20.40;;
27632;SDS011;15046;50.930;13.334;2022-08-14T04:11:03;27.45;;;22.13;;
27632;SDS011;15046;50.930;13.334;2022-08-14T04:13:31;27.77;;;22.55;;
27632;SDS011;15046;50.930;13.334;2022-08-14T04:15:59;30.67;;;23.67;;
27632;SDS011;15046;50.930;13.334;2022-08-14T04:18:27;28.08;;;22.67;;
27632;SDS011;15046;50.930;13.334;2022-08-14T04:20:53;27.95;;;22.50;;
27632;SDS011;15046;50.930;13.334;2022-08-14T04:23:23;28.73;;;22.70;;
27632;SDS011;15046;50.930;13.334;2022-08-14T04:25:49;27.40;;;22.27;;
27632;SDS011;15046;50.930;13.334;2022-08-14T04:28:19;33.35;;;25.88;;
27632;SDS011;15046;50.930;13.334;2022-08-14T04:30:45;29.52;;;24.48;;
27632;SDS011;15046;50.930;13.334;2022-08-14T04:33:11;31.38;;;24.48;;
27632;SDS011;15046;50.930;13.334;2022-08-14T04:35:38;31.20;;;24.23;;
27632;SDS011;15046;50.930;13.334;2022-08-14T04:38:05;30.65;;;23.35;;
27632;SDS011;15046;50.930;13.334;2022-08-14T04:40:50;30.58;;;24.58;;
27632;SDS011;15046;50.930;13.334;2022-08-14T04:43:35;29.63;;;24.83;;
27632;SDS011;15046;50.930;13.334;2022-08-14T04:46:08;28.40;;;24.30;;
27632;SDS011;15046;50.930;13.334;2022-08-14T04:48:36;29.50;;;24.15;;
27632;SDS011;15046;50.930;13.334;2022-08-14T04:51:03;26.73;;;23.05;;
27632;SDS011;15046;50.930;13.334;2022-08-14T04:53:30;30.95;;;24.25;;
27632;SDS011;15046;50.930;13.334;2022-08-14T04:55:57;28.83;;;23.58;;
27632;SDS011;15046;50.930;13.334;2022-08-14T04:58:24;26.95;;;23.60;;
27632;SDS011;15046;50.930;13.334;2022-08-14T05:00:55;29.08;;;23.77;;
27632;SDS011;15046;50.930;13.334;2022-08-14T05:03:22;33.03;;;25.95;;
27632;SDS011;15046;50.930;13.334;2022-08-14T05:05:56;28.50;;;25.40;;
27632;SDS011;15046;50.930;13.334;2022-08-14T05:08:23;28.98;;;24.67;;
27632;SDS011;15046;50.930;13.334;2022-08-14T05:10:52;27.30;;;23.35;;
27632;SDS011;15046;50.930;13.334;2022-08-14T05:13:21;29.23;;;24.38;;
27632;SDS011;15046;50.930;13.334;2022-08-14T05:15:48;28.95;;;24.13;;
27632;SDS011;15046;50.930;13.334;2022-08-14T05:18:17;26.83;;;22.20;;
27632;SDS011;15046;50.930;13.334;2022-08-14T05:20:47;29.23;;;24.83;;
27632;SDS011;15046;50.930;13.334;2022-08-14T05:23:18;28.67;;;22.70;;
27632;SDS011;15046;50.930;13.334;2022-08-14T05:25:46;29.67;;;24.45;;
27632;SDS011;15046;50.930;13.334;2022-08-14T05:28:15;29.55;;;24.02;;
27632;SDS011;15046;50.930;13.334;2022-08-14T05:30:52;32.00;;;25.15;;
27632;SDS011;15046;50.930;13.334;2022-08-14T05:33:20;36.80;;;28.25;;
27632;SDS011;15046;50.930;13.334;2022-08-14T05:35:52;27.80;;;23.48;;
27632;SDS011;15046;50.930;13.334;2022-08-14T05:38:25;25.27;;;21.40;;
27632;SDS011;15046;50.930;13.334;2022-08-14T05:40:54;32.22;;;25.50;;
27632;SDS011;15046;50.930;13.334;2022-08-14T05:43:21;28.67;;;24.95;;
27632;SDS011;15046;50.930;13.334;2022-08-14T05:45:47;27.50;;;22.30;;
27632;SDS011;15046;50.930;13.334;2022-08-14T05:48:13;24.60;;;21.88;;
27632;SDS011;15046;50.930;13.334;2022-08-14T05:53:09;27.10;;;22.52;;
27632;SDS011;15046;50.930;13.334;2022-08-14T05:55:35;25.08;;;21.92;;
27632;SDS011;15046;50.930;13.334;2022-08-14T05:58:04;23.55;;;19.77;;
27632;SDS011;15046;50.930;13.334;2022-08-14T06:00:32;23.00;;;19.45;;
27632;SDS011;15046;50.930;13.334;2022-08-14T06:03:04;20.58;;;17.95;;
27632;SDS011;15046;50.930;13.334;2022-08-14T06:05:31;24.17;;;19.58;;
27632;SDS011;15046;50.930;13.334;2022-08-14T06:07:58;23.05;;;18.38;;
27632;SDS011;15046;50.930;13.334;2022-08-14T06:10:24;22.33;;;18.50;;
27632;SDS011;15046;50.930;13.334;2022-08-14T06:12:52;20.92;;;18.73;;
27632;SDS011;15046;50.930;13.334;2022-08-14T06:15:18;22.25;;;18.55;;
27632;SDS011;15046;50.930;13.334;2022-08-14T06:20:11;27.25;;;18.17;;
27632;SDS011;15046;50.930;13.334;2022-08-14T06:22:41;19.92;;;17.38;;
27632;SDS011;15046;50.930;13.334;2022-08-14T06:25:08;21.05;;;18.35;;
27632;SDS011;15046;50.930;13.334;2022-08-14T06:27:39;20.38;;;17.33;;
27632;SDS011;15046;50.930;13.334;2022-08-14T06:30:08;19.02;;;17.02;;
27632;SDS011;15046;50.930;13.334;2022-08-14T06:32:36;20.02;;;17.55;;
27632;SDS011;15046;50.930;13.334;2022-08-14T06:35:02;19.42;;;17.42;;
27632;SDS011;15046;50.930;13.334;2022-08-14T06:37:45;21.50;;;19.25;;
27632;SDS011;15046;50.930;13.334;2022-08-14T06:40:23;23.48;;;18.92;;
27632;SDS011;15046;50.930;13.334;2022-08-14T06:42:57;22.55;;;20.00;;
27632;SDS011;15046;50.930;13.334;2022-08-14T06:45:25;21.55;;;19.23;;
27632;SDS011;15046;50.930;13.334;2022-08-14T06:47:51;22.45;;;19.25;;
27632;SDS011;15046;50.930;13.334;2022-08-14T06:50:18;21.30;;;18.90;;
27632;SDS011;15046;50.930;13.334;2022-08-14T06:52:45;21.08;;;18.90;;
27632;SDS011;15046;50.930;13.334;2022-08-14T06:55:12;21.30;;;17.73;;
27632;SDS011;15046;50.930;13.334;2022-08-14T06:57:42;23.48;;;19.45;;
27632;SDS011;15046;50.930;13.334;2022-08-14T07:00:14;21.95;;;19.65;;
27632;SDS011;15046;50.930;13.334;2022-08-14T07:02:51;20.35;;;18.25;;
27632;SDS011;15046;50.930;13.334;2022-08-14T07:05:35;25.23;;;20.55;;
27632;SDS011;15046;50.930;13.334;2022-08-14T07:08:12;25.52;;;19.52;;
27632;SDS011;15046;50.930;13.334;2022-08-14T07:10:45;23.30;;;20.80;;
27632;SDS011;15046;50.930;13.334;2022-08-14T07:13:16;21.77;;;17.88;;
27632;SDS011;15046;50.930;13.334;2022-08-14T07:15:43;21.30;;;18.98;;
27632;SDS011;15046;50.930;13.334;2022-08-14T07:18:18;20.60;;;18.40;;
27632;SDS011;15046;50.930;13.334;2022-08-14T07:20:45;23.83;;;19.70;;
27632;SDS011;15046;50.930;13.334;2022-08-14T07:23:11;21.38;;;18.27;;
27632;SDS011;15046;50.930;13.334;2022-08-14T07:25:38;20.35;;;17.13;;
27632;SDS011;15046;50.930;13.334;2022-08-14T07:28:13;18.90;;;16.90;;
27632;SDS011;15046;50.930;13.334;2022-08-14T07:30:40;20.30;;;17.13;;
27632;SDS011;15046;50.930;13.334;2022-08-14T07:33:07;20.13;;;16.25;;
27632;SDS011;15046;50.930;13.334;2022-08-14T07:35:34;17.35;;;15.43;;
27632;SDS011;15046;50.930;13.334;2022-08-14T07:38:02;18.50;;;15.38;;
27632;SDS011;15046;50.930;13.334;2022-08-14T07:40:30;21.67;;;15.18;;
27632;SDS011;15046;50.930;13.334;2022-08-14T07:42:57;16.58;;;14.90;;
27632;SDS011;15046;50.930;13.334;2022-08-14T07:45:23;18.65;;;15.55;;
27632;SDS011;15046;50.930;13.334;2022-08-14T07:47:49;17.17;;;13.98;;
27632;SDS011;15046;50.930;13.334;2022-08-14T07:50:16;17.92;;;15.07;;
27632;SDS011;15046;50.930;13.334;2022-08-14T07:52:44;16.98;;;14.48;;
27632;SDS011;15046;50.930;13.334;2022-08-14T07:55:12;16.08;;;13.23;;
27632;SDS011;15046;50.930;13.334;2022-08-14T07:57:40;17.00;;;13.35;;
27632;SDS011;15046;50.930;13.334;2022-08-14T08:00:11;17.65;;;12.90;;
27632;SDS011;15046;50.930;13.334;2022-08-14T08:02:40;14.55;;;11.90;;
27632;SDS011;15046;50.930;13.334;2022-08-14T08:05:08;13.45;;;11.80;;
27632;SDS011;15046;50.930;13.334;2022-08-14T08:07:35;19.63;;;12.35;;
27632;SDS011;15046;50.930;13.334;2022-08-14T08:10:04;14.65;;;11.43;;
27632;SDS011;15046;50.930;13.334;2022-08-14T08:15:19;14.60;;;9.63;;
27632;SDS011;15046;50.930;13.334;2022-08-14T08:17:48;13.27;;;10.18;;
27632;SDS011;15046;50.930;13.334;2022-08-14T08:22:49;12.18;;;9.50;;
27632;SDS011;15046;50.930;13.334;2022-08-14T08:25:16;9.63;;;8.63;;
27632;SDS011;15046;50.930;13.334;2022-08-14T08:27:53;14.13;;;9.20;;
27632;SDS011;15046;50.930;13.334;2022-08-14T08:30:33;10.23;;;8.80;;
27632;SDS011;15046;50.930;13.334;2022-08-14T08:33:02;11.85;;;9.35;;
27632;SDS011;15046;50.930;13.334;2022-08-14T08:35:31;11.85;;;8.30;;
27632;SDS011;15046;50.930;13.334;2022-08-14T08:40:29;9.73;;;8.13;;
27632;SDS011;15046;50.930;13.334;2022-08-14T08:43:01;12.90;;;8.35;;
27632;SDS011;15046;50.930;13.334;2022-08-14T08:45:48;11.07;;;8.77;;
27632;SDS011;15046;50.930;13.334;2022-08-14T08:48:25;9.48;;;8.25;;
27632;SDS011;15046;50.930;13.334;2022-08-14T08:50:56;9.15;;;7.95;;
27632;SDS011;15046;50.930;13.334;2022-08-14T08:53:33;9.60;;;7.43;;
27632;SDS011;15046;50.930;13.334;2022-08-14T08:56:00;10.40;;;7.45;;
27632;SDS011;15046;50.930;13.334;2022-08-14T08:58:27;10.70;;;7.95;;
27632;SDS011;15046;50.930;13.334;2022-08-14T09:00:54;10.52;;;7.10;;
27632;SDS011;15046;50.930;13.334;2022-08-14T09:03:23;9.18;;;8.23;;
27632;SDS011;15046;50.930;13.334;2022-08-14T09:05:54;10.40;;;7.60;;
27632;SDS011;15046;50.930;13.334;2022-08-14T09:08:24;8.70;;;7.63;;
27632;SDS011;15046;50.930;13.334;2022-08-14T09:10:52;10.13;;;7.32;;
27632;SDS011;15046;50.930;13.334;2022-08-14T09:13:19;9.68;;;7.55;;
27632;SDS011;15046;50.930;13.334;2022-08-14T09:15:48;8.43;;;7.50;;
27632;SDS011;15046;50.930;13.334;2022-08-14T09:18:15;8.70;;;7.40;;
27632;SDS011;15046;50.930;13.334;2022-08-14T09:20:44;8.73;;;7.35;;
27632;SDS011;15046;50.930;13.334;2022-08-14T09:23:12;11.48;;;7.35;;
27632;SDS011;15046;50.930;13.334;2022-08-14T09:25:40;9.52;;;6.93;;
27632;SDS011;15046;50.930;13.334;2022-08-14T09:28:10;8.93;;;6.28;;
27632;SDS011;15046;50.930;13.334;2022-08-14T09:30:40;10.02;;;6.07;;
27632;SDS011;15046;50.930;13.334;2022-08-14T09:33:25;7.93;;;5.45;;
27632;SDS011;15046;50.930;13.334;2022-08-14T09:41:44;11.85;;;6.07;;
27632;SDS011;15046;50.930;13.334;2022-08-14T09:47:38;7.30;;;5.85;;
27632;SDS011;15046;50.930;13.334;2022-08-14T09:52:47;8.85;;;5.53;;
27632;SDS011;15046;50.930;13.334;2022-08-14T09:55:20;7.88;;;6.03;;
27632;SDS011;15046;50.930;13.334;2022-08-14T09:57:48;8.70;;;5.88;;
27632;SDS011;15046;50.930;13.334;2022-08-14T10:00:15;10.35;;;6.22;;
27632;SDS011;15046;50.930;13.334;2022-08-14T10:02:53;9.90;;;5.93;;
27632;SDS011;15046;50.930;13.334;2022-08-14T10:05:28;9.70;;;5.67;;
27632;SDS011;15046;50.930;13.334;2022-08-14T10:07:58;6.88;;;5.82;;
27632;SDS011;15046;50.930;13.334;2022-08-14T10:10:27;7.47;;;5.70;;
27632;SDS011;15046;50.930;13.334;2022-08-14T10:13:01;10.75;;;5.70;;
27632;SDS011;15046;50.930;13.334;2022-08-14T10:18:03;8.02;;;6.18;;
27632;SDS011;15046;50.930;13.334;2022-08-14T10:20:37;8.88;;;6.45;;
27632;SDS011;15046;50.930;13.334;2022-08-14T10:23:18;9.65;;;6.07;;
27632;SDS011;15046;50.930;13.334;2022-08-14T10:25:49;7.53;;;6.00;;
27632;SDS011;15046;50.930;13.334;2022-08-14T10:28:18;7.93;;;5.82;;
27632;SDS011;15046;50.930;13.334;2022-08-14T10:30:46;9.02;;;6.25;;
27632;SDS011;15046;50.930;13.334;2022-08-14T10:33:30;7.25;;;5.97;;
27632;SDS011;15046;50.930;13.334;2022-08-14T10:35:58;9.20;;;5.55;;
27632;SDS011;15046;50.930;13.334;2022-08-14T10:38:25;9.05;;;6.28;;
27632;SDS011;15046;50.930;13.334;2022-08-14T10:41:07;7.18;;;5.50;;
27632;SDS011;15046;50.930;13.334;2022-08-14T10:43:37;6.35;;;5.63;;
27632;SDS011;15046;50.930;13.334;2022-08-14T10:46:10;8.07;;;6.03;;
27632;SDS011;15046;50.930;13.334;2022-08-14T10:48:41;9.32;;;6.50;;
27632;SDS011;15046;50.930;13.334;2022-08-14T10:51:28;9.65;;;6.35;;
27632;SDS011;15046;50.930;13.334;2022-08-14T10:53:57;9.35;;;6.53;;
27632;SDS011;15046;50.930;13.334;2022-08-14T10:56:29;7.97;;;6.22;;
27632;SDS011;15046;50.930;13.334;2022-08-14T10:59:01;7.43;;;6.28;;
27632;SDS011;15046;50.930;13.334;2022-08-14T11:01:29;8.43;;;6.72;;
27632;SDS011;15046;50.930;13.334;2022-08-14T11:03:56;6.93;;;5.97;;
27632;SDS011;15046;50.930;13.334;2022-08-14T11:06:21;7.13;;;5.95;;
27632;SDS011;15046;50.930;13.334;2022-08-14T11:08:48;8.70;;;6.03;;
27632;SDS011;15046;50.930;13.334;2022-08-14T11:11:16;9.25;;;6.50;;
27632;SDS011;15046;50.930;13.334;2022-08-14T11:13:43;7.57;;;6.22;;
27632;SDS011;15046;50.930;13.334;2022-08-14T11:16:14;6.90;;;6.18;;
27632;SDS011;15046;50.930;13.334;2022-08-14T11:18:45;9.45;;;6.05;;
27632;SDS011;15046;50.930;13.334;2022-08-14T11:21:16;9.20;;;6.07;;
27632;SDS011;15046;50.930;13.334;2022-08-14T11:23:45;8.35;;;6.30;;
27632;SDS011;15046;50.930;13.334;2022-08-14T11:26:13;9.20;;;6.63;;
27632;SDS011;15046;50.930;13.334;2022-08-14T11:28:44;7.40;;;5.95;;
27632;SDS011;15046;50.930;13.334;2022-08-14T11:31:12;8.02;;;5.97;;
27632;SDS011;15046;50.930;13.334;2022-08-14T11:33:38;7.68;;;6.88;;
27632;SDS011;15046;50.930;13.334;2022-08-14T11:36:06;8.32;;;6.57;;
27632;SDS011;15046;50.930;13.334;2022-08-14T11:41:07;6.97;;;6.28;;
27632;SDS011;15046;50.930;13.334;2022-08-14T11:43:40;10.00;;;6.47;;
27632;SDS011;15046;50.930;13.334;2022-08-14T11:46:08;11.60;;;6.47;;
27632;SDS011;15046;50.930;13.334;2022-08-14T11:48:47;8.85;;;6.47;;
27632;SDS011;15046;50.930;13.334;2022-08-14T11:51:22;8.90;;;6.17;;
27632;SDS011;15046;50.930;13.334;2022-08-14T11:54:00;6.88;;;5.78;;
27632;SDS011;15046;50.930;13.334;2022-08-14T11:56:37;7.40;;;5.85;;
27632;SDS011;15046;50.930;13.334;2022-08-14T11:59:05;7.00;;;6.25;;
27632;SDS011;15046;50.930;13.334;2022-08-14T12:01:33;8.95;;;6.68;;
27632;SDS011;15046;50.930;13.334;2022-08-14T12:04:10;8.45;;;6.63;;
27632;SDS011;15046;50.930;13.334;2022-08-14T12:06:54;9.00;;;7.05;;
27632;SDS011;15046;50.930;13.334;2022-08-14T12:09:30;7.95;;;6.57;;
27632;SDS011;15046;50.930;13.334;2022-08-14T12:11:57;11.18;;;6.82;;
27632;SDS011;15046;50.930;13.334;2022-08-14T12:14:24;7.07;;;6.35;;
27632;SDS011;15046;50.930;13.334;2022-08-14T12:19:26;7.88;;;6.55;;
27632;SDS011;15046;50.930;13.334;2022-08-14T12:21:52;10.27;;;5.47;;
27632;SDS011;15046;50.930;13.334;2022-08-14T12:24:17;7.47;;;6.05;;
27632;SDS011;15046;50.930;13.334;2022-08-14T12:26:55;10.55;;;6.28;;
27632;SDS011;15046;50.930;13.334;2022-08-14T12:29:21;7.90;;;6.20;;
27632;SDS011;15046;50.930;13.334;2022-08-14T12:31:56;7.60;;;6.47;;
27632;SDS011;15046;50.930;13.334;2022-08-14T12:34:28;8.45;;;5.88;;
27632;SDS011;15046;50.930;13.334;2022-08-14T12:37:02;8.00;;;5.50;;
27632;SDS011;15046;50.930;13.334;2022-08-14T12:39:30;8.88;;;5.78;;
27632;SDS011;15046;50.930;13.334;2022-08-14T12:41:57;13.00;;;6.78;;
27632;SDS011;15046;50.930;13.334;2022-08-14T12:44:34;8.98;;;6.13;;
27632;SDS011;15046;50.930;13.334;2022-08-14T12:47:25;10.07;;;6.72;;
27632;SDS011;15046;50.930;13.334;2022-08-14T12:49:52;8.35;;;6.68;;
27632;SDS011;15046;50.930;13.334;2022-08-14T12:52:26;7.47;;;6.43;;
27632;SDS011;15046;50.930;13.334;2022-08-14T12:55:03;7.47;;;6.35;;
27632;SDS011;15046;50.930;13.334;2022-08-14T12:57:53;10.20;;;6.07;;
27632;SDS011;15046;50.930;13.334;2022-08-14T13:00:22;9.88;;;6.05;;
27632;SDS011;15046;50.930;13.334;2022-08-14T13:02:50;9.27;;;5.78;;
27632;SDS011;15046;50.930;13.334;2022-08-14T13:05:19;12.80;;;6.83;;
27632;SDS011;15046;50.930;13.334;2022-08-14T13:07:47;6.77;;;5.50;;
27632;SDS011;15046;50.930;13.334;2022-08-14T13:10:16;6.70;;;5.17;;
27632;SDS011;15046;50.930;13.334;2022-08-14T13:12:44;7.38;;;6.18;;
27632;SDS011;15046;50.930;13.334;2022-08-14T13:15:11;8.80;;;5.70;;
27632;SDS011;15046;50.930;13.334;2022-08-14T13:17:42;7.22;;;5.75;;
27632;SDS011;15046;50.930;13.334;2022-08-14T13:20:11;8.80;;;5.38;;
27632;SDS011;15046;50.930;13.334;2022-08-14T13:22:41;7.38;;;5.95;;
27632;SDS011;15046;50.930;13.334;2022-08-14T13:25:16;8.05;;;6.20;;
27632;SDS011;15046;50.930;13.334;2022-08-14T13:27:46;6.88;;;5.30;;
27632;SDS011;15046;50.930;13.334;2022-08-14T13:30:15;8.02;;;6.00;;
27632;SDS011;15046;50.930;13.334;2022-08-14T13:32:45;7.93;;;5.82;;
27632;SDS011;15046;50.930;13.334;2022-08-14T13:35:11;8.88;;;6.00;;
27632;SDS011;15046;50.930;13.334;2022-08-14T13:37:40;7.43;;;5.80;;
27632;SDS011;15046;50.930;13.334;2022-08-14T13:40:08;5.82;;;4.97;;
27632;SDS011;15046;50.930;13.334;2022-08-14T13:42:38;6.13;;;5.25;;
27632;SDS011;15046;50.930;13.334;2022-08-14T13:45:10;6.75;;;5.68;;
27632;SDS011;15046;50.930;13.334;2022-08-14T13:47:37;10.80;;;6.55;;
27632;SDS011;15046;50.930;13.334;2022-08-14T13:50:05;8.32;;;5.43;;
27632;SDS011;15046;50.930;13.334;2022-08-14T13:52:38;6.57;;;5.30;;
27632;SDS011;15046;50.930;13.334;2022-08-14T13:55:09;7.30;;;5.93;;
27632;SDS011;15046;50.930;13.334;2022-08-14T13:57:39;8.60;;;5.68;;
27632;SDS011;15046;50.930;13.334;2022-08-14T14:00:08;6.72;;;5.63;;
27632;SDS011;15046;50.930;13.334;2022-08-14T14:02:38;8.18;;;5.72;;
27632;SDS011;15046;50.930;13.334;2022-08-14T14:05:06;10.10;;;6.13;;
27632;SDS011;15046;50.930;13.334;2022-08-14T14:07:37;7.65;;;5.60;;
27632;SDS011;15046;50.930;13.334;2022-08-14T14:10:07;7.30;;;5.38;;
27632;SDS011;15046;50.930;13.334;2022-08-14T14:12:34;6.20;;;5.60;;
27632;SDS011;15046;50.930;13.334;2022-08-14T14:15:02;10.20;;;5.95;;
27632;SDS011;15046;50.930;13.334;2022-08-14T14:17:30;7.93;;;6.05;;
27632;SDS011;15046;50.930;13.334;2022-08-14T14:19:57;10.57;;;5.88;;
27632;SDS011;15046;50.930;13.334;2022-08-14T14:22:23;7.75;;;5.88;;
27632;SDS011;15046;50.930;13.334;2022-08-14T14:24:51;7.53;;;6.00;;
27632;SDS011;15046;50.930;13.334;2022-08-14T14:27:17;9.05;;;6.55;;
27632;SDS011;15046;50.930;13.334;2022-08-14T14:29:44;7.53;;;5.97;;
27632;SDS011;15046;50.930;13.334;2022-08-14T14:32:14;7.32;;;5.60;;
27632;SDS011;15046;50.930;13.334;2022-08-14T14:34:41;8.95;;;5.70;;
27632;SDS011;15046;50.930;13.334;2022-08-14T14:37:11;10.18;;;6.20;;
27632;SDS011;15046;50.930;13.334;2022-08-14T14:39:39;8.55;;;6.15;;
27632;SDS011;15046;50.930;13.334;2022-08-14T14:42:06;8.90;;;6.30;;
27632;SDS011;15046;50.930;13.334;2022-08-14T14:44:34;6.88;;;5.95;;
27632;SDS011;15046;50.930;13.334;2022-08-14T14:47:10;9.70;;;6.22;;
27632;SDS011;15046;50.930;13.334;2022-08-14T14:49:41;10.30;;;6.03;;
27632;SDS011;15046;50.930;13.334;2022-08-14T14:52:07;7.68;;;6.07;;
27632;SDS011;15046;50.930;13.334;2022-08-14T14:54:34;9.95;;;6.68;;
27632;SDS011;15046;50.930;13.334;2022-08-14T14:57:00;11.75;;;6.05;;
27632;SDS011;15046;50.930;13.334;2022-08-14T14:59:27;8.45;;;6.15;;
27632;SDS011;15046;50.930;13.334;2022-08-14T15:01:59;7.32;;;6.20;;
27632;SDS011;15046;50.930;13.334;2022-08-14T15:04:30;8.10;;;5.93;;
27632;SDS011;15046;50.930;13.334;2022-08-14T15:06:57;8.40;;;6.20;;
27632;SDS011;15046;50.930;13.334;2022-08-14T15:09:24;8.07;;;6.30;;
27632;SDS011;15046;50.930;13.334;2022-08-14T15:11:50;11.40;;;6.82;;